Adams, NE

5:08 PM CDT on April 18, 2015 (GMT -0500)
Nebraska City Municipal | | Change Station
CLOSE
Current Station
Airport
Location: Nebraska City,
Elevation: 1161 ft
Nearby Weather Stations

Elev 1161 ft 40.61 °N, 95.86 °W | Updated 13 minutes ago

Overcast
Overcast
62 °F
Feels Like 62 °F
N
10
Wind Variable Wind from ESE

Today
High -- | Low -- °F
--% Chance of Precip.
Yesterday
High -- | Low -- °F
Precip. -- in
6:43 AM 8:08 PM
New Moon, 0% visible
Pressure 29.84 in
Visibility 10.0 miles
Clouds Scattered Clouds 800 ft
Scattered Clouds 2400 ft
Mostly Cloudy 12000 ft
Dew Point 61 °F
Humidity 96%
Rainfall 1.22 in
Snow Depth Not available.
UV 2 out of 12
Pollen 5.00 out of 12
Air Quality Not available.
Flu Activity Local Activity
METAR KAFK 182155Z AUTO 11009KT 10SM SCT008 SCT024 BKN120 17/16 A2984 RMK AO2 LTG DSNT W P0001 T01670160

More Conditions Fewer Conditions

Pressure 29.84 in
Visibility 10.0 miles
Clouds Scattered Clouds 800 ft
Scattered Clouds 2400 ft
Mostly Cloudy 12000 ft
Dew Point 61 °F
Humidity 96%
Rainfall 1.22 in
Snow Depth Not available.
UV 2 out of 12
Pollen 5.00 out of 12
Air Quality Not available.
Flu Activity Local Activity
METAR KAFK 182155Z AUTO 11009KT 10SM SCT008 SCT024 BKN120 17/16 A2984 RMK AO2 LTG DSNT W P0001 T01670160

More Conditions Fewer Conditions

10-Day Weather Forecast

Almanac

Astronomy

Apr. 18, 2015 Rise Set
Actual Time
Civil Twilight
Nautical Twilight
Astronomical Twilight
Moon
Length of Visible Light
Length of Day
Tomorrow will be .
, % of the Moon is Illuminated

Today's Extremes

State Highs State Lows

Community

WunderPhotos

Upload Photos

1,814,549 photos uploaded!

WunderBlogs® & News

Nearby

Air Quality

  Air Quality AQ Index Pollutant
Not available.

Snow Depth

Station Depth Elevation

Earthquake Activity

City Distance Mag. Time & Date
Minimum magnitude displayed is 2.5.

Coastal Water Temperatures

Place Temperature

Stations

Nearby Weather Stations

Station Location Temp. Windchill Dew Point Humidity Wind Precip. Elev Updated Type